Terminal Aerodrome Forecast
Issued by NWS Albany, NY

Home | Current Version | Previous Version | Text Only | Print | Product List | Glossary On
Versions: 1 2 3 4 5 6 7 8 9 10 11 12 13 14 15 16 17 18 19 20 21 22 23 24 25 26 27 28 29 30 31 32 33 34 35 36 37 38
944
FTUS41 KALY 172359 CCB
TAFPOU
TAF COR
KPOU 172359Z 1800/1824 17009KT 1SM -SN BR BKN009 OVC015
     FM180300 VRB03KT 3/4SM -SN BR VV008
     FM181000 29009KT P6SM BKN035
     FM181300 31013KT P6SM FEW035
     FM182200 29004KT P6SM SKC=

USA.gov is the U.S. government's official web portal to all federal, state and local government web resources and services.